createdAt,value
2022-12-09T00:01:23.694Z,91.60
2022-12-09T00:03:51.986Z,90.90
2022-12-09T00:06:22.663Z,91.00
2022-12-09T00:08:52.835Z,91.70
2022-12-09T00:11:22.419Z,91.90
2022-12-09T00:13:51.453Z,91.60
2022-12-09T00:16:20.584Z,91.70
2022-12-09T00:18:49.432Z,92.00
2022-12-09T00:21:21.283Z,92.00
2022-12-09T00:23:51.787Z,92.00
2022-12-09T00:26:21.141Z,91.80
2022-12-09T00:28:50.571Z,91.90
2022-12-09T00:31:21.889Z,92.00
2022-12-09T00:33:50.626Z,91.80
2022-12-09T00:36:20.763Z,91.40
2022-12-09T00:38:51.080Z,90.90
2022-12-09T00:41:19.376Z,91.20
2022-12-09T00:43:48.370Z,91.40
2022-12-09T00:46:17.691Z,91.90
2022-12-09T00:48:46.474Z,91.50
2022-12-09T00:51:16.720Z,91.70
2022-12-09T00:53:45.365Z,92.20
2022-12-09T00:56:15.438Z,92.40
2022-12-09T00:58:43.967Z,92.70
2022-12-09T01:01:12.461Z,92.80
2022-12-09T01:03:40.885Z,92.60
2022-12-09T01:06:10.770Z,93.10
2022-12-09T01:08:40.194Z,93.70
2022-12-09T01:11:11.613Z,93.40
2022-12-09T01:13:41.363Z,93.80
2022-12-09T01:16:16.505Z,93.80
2022-12-09T01:18:45.578Z,93.40
2022-12-09T01:21:14.001Z,93.70
2022-12-09T01:23:42.697Z,93.20
2022-12-09T01:26:11.355Z,92.80
2022-12-09T01:28:41.159Z,92.80
2022-12-09T01:31:11.086Z,92.90
2022-12-09T01:33:39.554Z,92.40
2022-12-09T01:36:09.761Z,92.60
2022-12-09T01:38:38.091Z,92.20
2022-12-09T01:41:06.609Z,91.80
2022-12-09T01:43:35.061Z,92.10
2022-12-09T01:46:04.981Z,92.10
2022-12-09T01:48:36.397Z,92.30
2022-12-09T01:51:09.442Z,92.80
2022-12-09T01:53:40.687Z,93.40
2022-12-09T01:56:14.540Z,93.80
2022-12-09T01:58:42.864Z,93.80
2022-12-09T02:01:12.815Z,94.10
2022-12-09T02:03:41.144Z,93.80
2022-12-09T02:06:09.730Z,93.60
2022-12-09T02:08:38.087Z,94.70
2022-12-09T02:11:14.279Z,95.70
2022-12-09T02:13:48.471Z,95.70
2022-12-09T02:16:22.760Z,96.00
2022-12-09T02:18:57.916Z,95.90
2022-12-09T02:21:32.438Z,96.10
2022-12-09T02:24:05.418Z,96.30
2022-12-09T02:26:40.793Z,97.20
2022-12-09T02:29:32.984Z,97.80
2022-12-09T02:32:22.235Z,98.80
2022-12-09T02:34:56.814Z,99.20
2022-12-09T02:37:32.098Z,99.70
2022-12-09T02:40:04.006Z,99.90
2022-12-09T02:42:35.942Z,99.90
2022-12-09T02:45:07.018Z,99.90
2022-12-09T02:47:40.762Z,99.90
2022-12-09T02:50:14.828Z,99.90
2022-12-09T02:52:45.115Z,99.90
2022-12-09T02:55:16.625Z,99.90
2022-12-09T02:57:45.161Z,99.90
2022-12-09T03:00:16.392Z,99.90
2022-12-09T03:02:49.178Z,99.00
2022-12-09T03:05:25.110Z,98.70
2022-12-09T03:08:04.319Z,98.40
2022-12-09T03:10:35.391Z,98.60
2022-12-09T03:13:09.097Z,99.00
2022-12-09T03:15:41.850Z,99.30
2022-12-09T03:18:14.667Z,99.00
2022-12-09T03:20:46.167Z,99.20
2022-12-09T03:23:20.678Z,99.90
2022-12-09T03:25:53.195Z,99.90
2022-12-09T03:28:25.525Z,99.90
2022-12-09T03:30:56.514Z,99.90
2022-12-09T03:33:26.822Z,99.90
2022-12-09T03:36:00.747Z,99.90
2022-12-09T03:38:32.622Z,99.90
2022-12-09T03:41:09.928Z,99.90
2022-12-09T03:43:44.409Z,99.90
2022-12-09T03:46:12.940Z,99.90
2022-12-09T03:48:41.721Z,99.90
2022-12-09T03:51:16.588Z,99.90
2022-12-09T03:53:48.043Z,99.90
2022-12-09T03:56:22.340Z,99.90
2022-12-09T03:58:54.732Z,99.90
2022-12-09T04:01:25.517Z,99.90
2022-12-09T04:03:56.528Z,99.90
2022-12-09T04:06:27.098Z,99.90
2022-12-09T04:09:00.698Z,99.90
2022-12-09T04:11:30.949Z,99.90
2022-12-09T04:13:59.729Z,99.90
2022-12-09T04:16:27.974Z,99.90
2022-12-09T04:18:56.487Z,99.90
2022-12-09T04:21:26.512Z,99.90
2022-12-09T04:23:55.055Z,99.90
2022-12-09T04:26:24.232Z,99.90
2022-12-09T04:28:52.647Z,99.90
2022-12-09T04:31:21.446Z,99.90
2022-12-09T04:33:49.667Z,99.90
2022-12-09T04:36:20.630Z,99.90
2022-12-09T04:38:50.384Z,99.60
2022-12-09T04:41:18.920Z,99.70
2022-12-09T04:43:48.978Z,99.30
2022-12-09T04:46:18.918Z,99.20
2022-12-09T04:48:47.701Z,98.70
2022-12-09T04:51:17.228Z,98.60
2022-12-09T04:53:45.762Z,98.60
2022-12-09T04:56:19.084Z,98.70
2022-12-09T04:58:48.511Z,99.10
2022-12-09T05:01:19.229Z,99.40
2022-12-09T05:03:51.015Z,99.60
2022-12-09T05:06:21.276Z,99.70
2022-12-09T05:08:50.704Z,99.10
2022-12-09T05:11:21.080Z,98.50
2022-12-09T05:13:50.306Z,98.40
2022-12-09T05:16:20.106Z,98.20
2022-12-09T05:18:49.997Z,98.20
2022-12-09T05:21:20.396Z,97.50
2022-12-09T05:23:49.949Z,97.40
2022-12-09T05:26:19.407Z,97.00
2022-12-09T05:28:49.370Z,97.10
2022-12-09T05:31:20.934Z,97.10
2022-12-09T05:33:51.176Z,96.60
2022-12-09T05:36:24.337Z,96.60
2022-12-09T05:38:53.399Z,96.60
2022-12-09T05:41:22.976Z,96.70
2022-12-09T05:43:54.123Z,96.70
2022-12-09T05:46:22.723Z,96.80
2022-12-09T05:48:51.666Z,97.30
2022-12-09T05:51:24.850Z,97.40
2022-12-09T05:53:54.210Z,97.40
2022-12-09T05:56:24.367Z,97.70
2022-12-09T05:58:55.641Z,97.80
2022-12-09T06:01:25.622Z,97.80
2022-12-09T06:03:55.448Z,97.70
2022-12-09T06:06:28.135Z,97.60
2022-12-09T06:08:58.978Z,97.90
2022-12-09T06:11:28.308Z,98.20
2022-12-09T06:13:58.944Z,98.40
2022-12-09T06:16:28.138Z,98.50
2022-12-09T06:18:56.983Z,99.00
2022-12-09T06:21:25.520Z,99.30
2022-12-09T06:23:54.292Z,99.40
2022-12-09T06:26:24.725Z,99.90
2022-12-09T06:28:54.235Z,99.90
2022-12-09T06:31:24.389Z,99.90
2022-12-09T06:33:55.861Z,99.80
2022-12-09T06:36:26.140Z,99.50
2022-12-09T06:38:55.004Z,98.80
2022-12-09T06:41:24.471Z,98.90
2022-12-09T06:43:53.186Z,99.30
2022-12-09T06:46:25.224Z,99.50
2022-12-09T06:48:54.697Z,99.30
2022-12-09T06:51:25.255Z,99.20
2022-12-09T06:53:54.410Z,98.90
2022-12-09T06:56:23.242Z,98.40
2022-12-09T06:58:52.059Z,98.40
2022-12-09T07:01:22.544Z,98.20
2022-12-09T07:03:54.393Z,98.40
2022-12-09T07:06:27.754Z,98.50
2022-12-09T07:08:58.302Z,98.40
2022-12-09T07:11:27.316Z,98.50
2022-12-09T07:13:55.733Z,98.20
2022-12-09T07:16:25.028Z,98.10
2022-12-09T07:18:55.656Z,98.00
2022-12-09T07:21:26.288Z,98.00
2022-12-09T07:23:55.402Z,98.20
2022-12-09T07:26:23.718Z,98.20
2022-12-09T07:28:52.518Z,97.80
2022-12-09T07:31:22.742Z,97.60
2022-12-09T07:33:51.799Z,97.60
2022-12-09T07:36:22.647Z,97.60
2022-12-09T07:38:55.293Z,96.90
2022-12-09T07:41:24.428Z,96.70
2022-12-09T07:43:52.988Z,96.90
2022-12-09T07:46:23.477Z,97.10
2022-12-09T07:48:51.996Z,96.80
2022-12-09T07:51:21.781Z,96.10
2022-12-09T07:53:49.862Z,95.50
2022-12-09T07:56:20.231Z,94.30
2022-12-09T07:58:51.968Z,93.20
2022-12-09T08:01:23.010Z,93.30
2022-12-09T08:03:51.540Z,93.30
2022-12-09T08:06:23.490Z,93.80
2022-12-09T08:08:52.783Z,93.40
2022-12-09T08:11:22.676Z,93.00
2022-12-09T08:13:52.480Z,92.70
2022-12-09T08:16:23.022Z,92.20
2022-12-09T08:18:52.570Z,91.40
2022-12-09T08:21:23.339Z,91.20
2022-12-09T08:23:52.858Z,90.90
2022-12-09T08:26:23.129Z,90.50
2022-12-09T08:28:52.062Z,90.90
2022-12-09T08:31:23.309Z,90.90
2022-12-09T08:33:52.563Z,91.60
2022-12-09T08:36:24.783Z,92.10
2022-12-09T08:38:53.161Z,92.00
2022-12-09T08:41:35.777Z,92.30
2022-12-09T08:44:07.119Z,92.40
2022-12-09T08:46:37.244Z,92.30
2022-12-09T08:49:06.767Z,92.30
2022-12-09T08:51:37.592Z,91.60
2022-12-09T08:54:07.049Z,91.30
2022-12-09T08:56:35.500Z,86.00
2022-12-09T08:59:05.006Z,84.00
2022-12-09T09:01:35.847Z,82.50
2022-12-09T09:04:07.006Z,81.50
2022-12-09T09:06:38.861Z,80.60
2022-12-09T09:09:09.855Z,79.80
2022-12-09T09:11:38.841Z,80.40
2022-12-09T09:14:10.177Z,79.30
2022-12-09T09:16:40.881Z,73.30
2022-12-09T09:19:09.847Z,73.00
2022-12-09T09:21:40.081Z,70.80
2022-12-09T09:24:11.324Z,71.80
2022-12-09T09:26:42.570Z,68.90
2022-12-09T09:29:12.658Z,69.80
2022-12-09T09:31:41.389Z,66.00
2022-12-09T09:34:11.214Z,64.20
2022-12-09T09:36:41.429Z,67.80
2022-12-09T09:39:09.815Z,64.50
2022-12-09T09:41:46.363Z,61.50
2022-12-09T09:44:22.513Z,58.70
2022-12-09T09:46:52.695Z,56.90
2022-12-09T09:49:28.754Z,53.70
2022-12-09T09:51:59.174Z,51.80
2022-12-09T09:54:27.552Z,53.60
2022-12-09T09:57:00.912Z,48.00
2022-12-09T09:59:41.246Z,52.10
2022-12-09T10:02:20.961Z,49.70
2022-12-09T10:05:01.445Z,45.40
2022-12-09T10:07:40.070Z,49.80
2022-12-09T10:10:19.041Z,50.50
2022-12-09T10:13:06.143Z,53.80
2022-12-09T10:15:43.324Z,53.10
2022-12-09T10:18:19.178Z,51.70
2022-12-09T10:20:48.854Z,52.60
2022-12-09T10:23:19.281Z,48.10
2022-12-09T10:25:50.145Z,45.80
2022-12-09T10:28:22.731Z,41.90
2022-12-09T10:30:52.841Z,39.10
2022-12-09T10:33:31.433Z,41.60
2022-12-09T10:36:00.147Z,39.40
2022-12-09T10:38:32.349Z,38.00
2022-12-09T10:41:06.639Z,39.90
2022-12-09T10:43:37.470Z,41.10
2022-12-09T10:46:19.196Z,43.00
2022-12-09T10:48:56.446Z,41.70
2022-12-09T10:51:27.971Z,45.20
2022-12-09T10:54:02.583Z,45.70
2022-12-09T10:56:35.042Z,48.50
2022-12-09T10:59:18.984Z,48.30
2022-12-09T11:01:54.758Z,50.90
2022-12-09T11:04:26.441Z,55.20
2022-12-09T11:07:00.259Z,51.60
2022-12-09T11:09:33.453Z,52.60
2022-12-09T11:12:03.237Z,51.50
2022-12-09T11:14:35.849Z,53.40
2022-12-09T11:17:15.573Z,53.40
2022-12-09T11:19:47.021Z,55.50
2022-12-09T11:22:23.347Z,58.40
2022-12-09T11:24:56.710Z,61.00
2022-12-09T11:27:28.168Z,60.90
2022-12-09T11:30:14.643Z,61.40
2022-12-09T11:33:09.776Z,61.50
2022-12-09T11:35:51.175Z,59.30
2022-12-09T11:38:29.849Z,60.00
2022-12-09T11:41:06.983Z,60.00
2022-12-09T11:43:40.497Z,61.70
2022-12-09T11:46:21.434Z,64.20
2022-12-09T11:48:56.118Z,65.20
2022-12-09T11:51:27.557Z,68.60
2022-12-09T11:54:03.661Z,66.80
2022-12-09T11:56:35.764Z,66.40
2022-12-09T11:59:07.648Z,66.70
2022-12-09T12:01:48.193Z,69.90
2022-12-09T12:04:18.931Z,73.60
2022-12-09T12:06:50.041Z,72.00
2022-12-09T12:09:24.993Z,75.40
2022-12-09T12:12:04.255Z,74.90
2022-12-09T12:14:32.704Z,72.70
2022-12-09T12:17:09.648Z,74.80
2022-12-09T12:19:40.415Z,74.00
2022-12-09T12:22:54.930Z,75.60
2022-12-09T12:25:35.388Z,77.30
2022-12-09T12:28:19.768Z,77.70
2022-12-09T12:30:56.432Z,76.20
2022-12-09T12:36:40.623Z,74.50
2022-12-09T12:39:21.695Z,77.10
2022-12-09T12:41:56.984Z,74.90
2022-12-09T12:44:58.279Z,76.20
2022-12-09T12:47:34.153Z,76.00
2022-12-09T12:50:29.815Z,74.50
2022-12-09T12:53:04.064Z,75.90
2022-12-09T12:55:51.138Z,75.20
2022-12-09T12:58:33.945Z,74.10
2022-12-09T13:01:09.328Z,77.30
2022-12-09T13:03:46.075Z,78.40
2022-12-09T13:06:17.677Z,80.10
2022-12-09T13:08:49.876Z,78.80
2022-12-09T13:11:22.628Z,78.60
2022-12-09T13:13:54.067Z,78.50
2022-12-09T13:16:28.607Z,79.30
2022-12-09T13:19:07.333Z,80.50
2022-12-09T13:21:37.073Z,82.30
2022-12-09T13:24:15.928Z,83.20
2022-12-09T13:26:51.296Z,86.90
2022-12-09T13:29:36.006Z,88.50
2022-12-09T13:32:20.305Z,89.20
2022-12-09T13:34:54.317Z,91.40
2022-12-09T13:37:59.254Z,92.00
2022-12-09T13:40:31.767Z,92.30
2022-12-09T13:43:10.486Z,93.40
2022-12-09T13:45:49.835Z,93.10
2022-12-09T13:48:45.114Z,93.80
2022-12-09T13:51:13.901Z,93.90
2022-12-09T13:53:48.539Z,94.70
2022-12-09T13:56:26.833Z,94.80
2022-12-09T13:59:25.196Z,95.10
2022-12-09T14:01:55.869Z,95.30
2022-12-09T14:04:28.179Z,96.50
2022-12-09T14:07:06.593Z,97.00
2022-12-09T14:09:47.870Z,97.00
2022-12-09T14:12:54.641Z,96.90
2022-12-09T14:15:39.828Z,96.80
2022-12-09T14:18:31.258Z,96.80
2022-12-09T14:21:28.005Z,97.10
2022-12-09T14:24:30.240Z,96.90
2022-12-09T14:27:19.673Z,97.20
2022-12-09T14:29:49.486Z,97.50
2022-12-09T14:32:29.328Z,98.00
2022-12-09T14:35:20.330Z,97.90
2022-12-09T14:38:01.432Z,97.30
2022-12-09T14:41:04.114Z,97.40
2022-12-09T14:44:15.818Z,97.80
2022-12-09T14:46:46.915Z,97.60
2022-12-09T14:49:19.942Z,97.70
2022-12-09T14:51:50.835Z,98.00
2022-12-09T14:54:24.044Z,98.90
2022-12-09T14:56:54.949Z,98.80
2022-12-09T14:59:25.808Z,98.80
2022-12-09T15:01:57.183Z,98.80
2022-12-09T15:04:32.813Z,98.80
2022-12-09T15:07:11.988Z,99.40
2022-12-09T15:09:49.519Z,99.60
2022-12-09T15:12:18.609Z,99.70
2022-12-09T15:14:47.540Z,99.10
2022-12-09T15:17:23.771Z,99.40
2022-12-09T15:20:00.328Z,99.60
2022-12-09T15:22:40.530Z,99.60
2022-12-09T15:25:19.135Z,99.70
2022-12-09T15:27:57.842Z,99.50
2022-12-09T15:30:35.213Z,99.50
2022-12-09T15:33:04.391Z,99.50
2022-12-09T15:35:34.403Z,99.40
2022-12-09T15:38:06.814Z,99.20
2022-12-09T15:40:37.886Z,99.10
2022-12-09T15:43:09.997Z,99.40
2022-12-09T15:45:43.429Z,99.30
2022-12-09T15:48:17.762Z,99.30
2022-12-09T15:50:51.394Z,99.20
2022-12-09T15:53:23.418Z,99.50
2022-12-09T15:55:57.922Z,99.50
2022-12-09T15:58:30.232Z,99.90
2022-12-09T16:00:59.516Z,99.90
2022-12-09T16:03:29.810Z,99.90
2022-12-09T16:06:03.297Z,99.90
2022-12-09T16:08:37.373Z,99.90
2022-12-09T16:11:07.291Z,99.90
2022-12-09T16:13:35.520Z,99.90
2022-12-09T16:16:24.382Z,99.90
2022-12-09T16:18:52.555Z,99.90
2022-12-09T16:21:29.241Z,99.90
2022-12-09T16:24:06.423Z,99.90
2022-12-09T16:26:39.165Z,99.90
2022-12-09T16:29:16.509Z,99.90
2022-12-09T16:31:44.906Z,99.90
2022-12-09T16:34:21.665Z,99.90
2022-12-09T16:36:55.378Z,99.90
2022-12-09T16:39:44.215Z,99.90
2022-12-09T16:42:29.822Z,99.90
2022-12-09T16:45:24.576Z,99.90
2022-12-09T16:47:56.637Z,99.90
2022-12-09T16:50:30.079Z,99.90
2022-12-09T16:52:59.618Z,99.90
2022-12-09T16:55:29.115Z,99.90
2022-12-09T16:58:00.382Z,99.90
2022-12-09T17:00:28.496Z,99.90
2022-12-09T17:03:02.673Z,99.90
2022-12-09T17:05:31.254Z,99.90
2022-12-09T17:07:59.564Z,99.90
2022-12-09T17:10:27.834Z,99.90
2022-12-09T17:12:56.064Z,99.90
2022-12-09T17:15:25.641Z,99.90
2022-12-09T17:17:53.643Z,99.90
2022-12-09T17:20:21.778Z,99.90
2022-12-09T17:22:49.984Z,99.90
2022-12-09T17:25:18.264Z,99.90
2022-12-09T17:27:46.363Z,99.90
2022-12-09T17:30:15.252Z,99.90
2022-12-09T17:32:44.732Z,99.90
2022-12-09T17:35:16.042Z,99.90
2022-12-09T17:37:44.998Z,99.90
2022-12-09T17:40:13.908Z,99.90
2022-12-09T17:42:42.041Z,99.90
2022-12-09T17:45:10.895Z,99.90
2022-12-09T17:47:39.027Z,99.90
2022-12-09T17:50:09.631Z,99.90
2022-12-09T17:52:38.426Z,99.90
2022-12-09T17:55:07.599Z,99.90
2022-12-09T17:57:35.886Z,99.90
2022-12-09T18:00:05.366Z,99.90
2022-12-09T18:02:33.847Z,99.90
2022-12-09T18:05:02.410Z,99.90
2022-12-09T18:07:32.135Z,99.90
2022-12-09T18:10:00.310Z,99.90
2022-12-09T18:12:29.191Z,99.90
2022-12-09T18:14:57.357Z,99.90
2022-12-09T18:17:25.535Z,99.90
2022-12-09T18:19:54.606Z,99.90
2022-12-09T18:22:22.906Z,99.90
2022-12-09T18:24:52.440Z,99.90
2022-12-09T18:27:20.353Z,99.90
2022-12-09T18:29:48.422Z,99.90
2022-12-09T18:32:16.875Z,99.90
2022-12-09T18:34:46.389Z,99.90
2022-12-09T18:37:15.133Z,99.90
2022-12-09T18:39:43.349Z,99.90
2022-12-09T18:42:13.090Z,99.90
2022-12-09T18:44:41.290Z,99.90
2022-12-09T18:47:09.466Z,99.90
2022-12-09T18:49:37.877Z,99.90
2022-12-09T18:52:06.247Z,99.90
2022-12-09T18:54:34.546Z,99.90
2022-12-09T18:57:03.938Z,99.90
2022-12-09T18:59:33.700Z,99.90
2022-12-09T19:02:01.819Z,99.90
2022-12-09T19:04:31.174Z,99.90
2022-12-09T19:07:00.945Z,99.90
2022-12-09T19:09:33.324Z,99.90
2022-12-09T19:12:22.960Z,99.90
2022-12-09T19:14:52.231Z,99.90
2022-12-09T19:17:20.432Z,99.90
2022-12-09T19:19:50.284Z,99.90
2022-12-09T19:22:18.539Z,99.90
2022-12-09T19:24:46.696Z,99.90
2022-12-09T19:27:14.784Z,99.90
2022-12-09T19:29:42.903Z,99.90
2022-12-09T19:32:36.388Z,99.90
2022-12-09T19:35:01.046Z,99.90
2022-12-09T19:37:29.150Z,99.90
2022-12-09T19:39:57.476Z,99.90
2022-12-09T19:42:25.560Z,99.90
2022-12-09T19:45:02.908Z,99.90
2022-12-09T19:47:32.577Z,99.90
2022-12-09T19:50:00.724Z,99.90
2022-12-09T19:52:28.995Z,99.90
2022-12-09T19:54:57.106Z,99.90
2022-12-09T19:57:25.231Z,99.90
2022-12-09T19:59:53.531Z,99.90
2022-12-09T20:02:21.632Z,99.90
2022-12-09T20:04:51.633Z,99.90
2022-12-09T20:07:20.046Z,99.90
2022-12-09T20:09:48.774Z,99.90
2022-12-09T20:12:17.121Z,99.90
2022-12-09T20:14:45.243Z,99.90
2022-12-09T20:17:13.737Z,99.90
2022-12-09T20:19:41.881Z,99.90
2022-12-09T20:22:11.350Z,99.90
2022-12-09T20:24:39.646Z,99.90
2022-12-09T20:27:07.927Z,99.90
2022-12-09T20:29:38.135Z,99.90
2022-12-09T20:32:07.434Z,99.90
2022-12-09T20:34:36.329Z,99.90
2022-12-09T20:37:04.689Z,99.90
2022-12-09T20:39:34.266Z,99.90
2022-12-09T20:42:02.224Z,99.90
2022-12-09T20:44:32.335Z,99.90
2022-12-09T20:47:00.461Z,99.90
2022-12-09T20:49:29.984Z,99.90
2022-12-09T20:51:58.299Z,99.90
2022-12-09T20:54:26.519Z,99.90
2022-12-09T20:56:56.145Z,99.90
2022-12-09T20:59:24.089Z,99.90
2022-12-09T21:01:54.105Z,99.90
2022-12-09T21:04:22.547Z,99.90
2022-12-09T21:06:50.777Z,99.90
2022-12-09T21:09:22.232Z,99.90
2022-12-09T21:11:51.947Z,99.90
2022-12-09T21:14:21.735Z,99.90
2022-12-09T21:16:51.381Z,99.90
2022-12-09T21:19:24.641Z,99.90
2022-12-09T21:21:55.172Z,99.90
2022-12-09T21:24:24.691Z,99.90
2022-12-09T21:26:55.512Z,99.90
2022-12-09T21:29:31.256Z,99.90
2022-12-09T21:32:01.308Z,99.90
2022-12-09T21:34:29.926Z,99.90
2022-12-09T21:36:58.486Z,99.90
2022-12-09T21:39:27.626Z,99.90
2022-12-09T21:41:55.737Z,99.90
2022-12-09T21:44:27.049Z,99.90
2022-12-09T21:46:55.657Z,99.90
2022-12-09T21:49:24.030Z,99.90
2022-12-09T21:51:52.147Z,99.90
2022-12-09T21:54:20.229Z,99.90
2022-12-09T21:56:48.345Z,99.90
2022-12-09T21:59:16.479Z,99.90
2022-12-09T22:01:46.097Z,99.90
2022-12-09T22:04:17.165Z,99.90
2022-12-09T22:06:47.591Z,99.90
2022-12-09T22:09:17.204Z,99.90
2022-12-09T22:11:45.613Z,99.90
2022-12-09T22:14:13.798Z,99.90
2022-12-09T22:16:46.281Z,99.90
2022-12-09T22:19:16.241Z,99.90
2022-12-09T22:21:44.798Z,99.90
2022-12-09T22:24:14.314Z,99.90
2022-12-09T22:26:43.593Z,99.90
2022-12-09T22:29:13.340Z,99.90
2022-12-09T22:31:42.890Z,99.90
2022-12-09T22:34:13.534Z,99.90
2022-12-09T22:36:42.759Z,99.90
2022-12-09T22:39:14.235Z,99.90
2022-12-09T22:41:43.744Z,99.90
2022-12-09T22:44:12.622Z,99.90
2022-12-09T22:46:42.205Z,99.90
2022-12-09T22:49:14.633Z,99.90
2022-12-09T22:51:43.768Z,99.90
2022-12-09T22:54:12.927Z,99.90
2022-12-09T22:56:43.219Z,99.90
2022-12-09T22:59:12.219Z,99.90
2022-12-09T23:01:40.665Z,99.90
2022-12-09T23:04:10.687Z,99.90
2022-12-09T23:06:40.849Z,99.90
2022-12-09T23:09:11.490Z,99.90
2022-12-09T23:11:39.629Z,99.90
2022-12-09T23:14:07.890Z,99.90
2022-12-09T23:16:36.017Z,99.90
2022-12-09T23:19:04.421Z,99.90
2022-12-09T23:21:35.504Z,99.90
2022-12-09T23:24:08.204Z,99.90
2022-12-09T23:26:39.261Z,99.90
2022-12-09T23:29:12.106Z,99.90
2022-12-09T23:31:40.317Z,99.90
2022-12-09T23:34:09.528Z,99.90
2022-12-09T23:36:39.781Z,99.90
2022-12-09T23:39:11.247Z,99.90
2022-12-09T23:41:40.758Z,99.90
2022-12-09T23:44:09.753Z,99.90
2022-12-09T23:46:38.296Z,99.90
2022-12-09T23:49:07.544Z,99.90
2022-12-09T23:51:37.133Z,99.90
2022-12-09T23:54:09.355Z,99.90
2022-12-09T23:56:39.876Z,99.90
2022-12-09T23:59:12.496Z,99.90
